sensor_id;sensor_type;location;lat;lon;timestamp;P1;durP1;ratioP1;P2;durP2;ratioP2
32172;SDS011;18679;45.190;5.722;2024-01-30T00:00:39;15.90;;;7.47;;
32172;SDS011;18679;45.190;5.722;2024-01-30T00:03:39;25.55;;;9.38;;
32172;SDS011;18679;45.190;5.722;2024-01-30T00:06:40;19.45;;;7.07;;
32172;SDS011;18679;45.190;5.722;2024-01-30T00:09:42;24.38;;;10.05;;
32172;SDS011;18679;45.190;5.722;2024-01-30T00:12:43;17.58;;;7.50;;
32172;SDS011;18679;45.190;5.722;2024-01-30T00:15:44;20.50;;;8.68;;
32172;SDS011;18679;45.190;5.722;2024-01-30T00:18:45;19.35;;;8.93;;
32172;SDS011;18679;45.190;5.722;2024-01-30T00:21:46;26.13;;;9.27;;
32172;SDS011;18679;45.190;5.722;2024-01-30T00:24:46;18.77;;;8.45;;
32172;SDS011;18679;45.190;5.722;2024-01-30T00:27:47;20.52;;;8.55;;
32172;SDS011;18679;45.190;5.722;2024-01-30T00:30:48;17.30;;;8.10;;
32172;SDS011;18679;45.190;5.722;2024-01-30T00:33:49;19.48;;;8.65;;
32172;SDS011;18679;45.190;5.722;2024-01-30T00:36:50;24.30;;;8.80;;
32172;SDS011;18679;45.190;5.722;2024-01-30T00:39:51;19.17;;;8.50;;
32172;SDS011;18679;45.190;5.722;2024-01-30T00:42:52;21.90;;;8.68;;
32172;SDS011;18679;45.190;5.722;2024-01-30T00:45:53;19.23;;;8.98;;
32172;SDS011;18679;45.190;5.722;2024-01-30T00:48:54;24.50;;;8.82;;
32172;SDS011;18679;45.190;5.722;2024-01-30T00:51:55;26.67;;;8.15;;
32172;SDS011;18679;45.190;5.722;2024-01-30T00:54:56;14.25;;;7.20;;
32172;SDS011;18679;45.190;5.722;2024-01-30T00:57:56;17.58;;;7.82;;
32172;SDS011;18679;45.190;5.722;2024-01-30T01:00:57;28.55;;;8.95;;
32172;SDS011;18679;45.190;5.722;2024-01-30T01:04:00;26.30;;;8.77;;
32172;SDS011;18679;45.190;5.722;2024-01-30T01:07:00;19.05;;;7.97;;
32172;SDS011;18679;45.190;5.722;2024-01-30T01:10:01;18.75;;;8.50;;
32172;SDS011;18679;45.190;5.722;2024-01-30T01:13:02;20.42;;;8.60;;
32172;SDS011;18679;45.190;5.722;2024-01-30T01:16:04;23.40;;;8.27;;
32172;SDS011;18679;45.190;5.722;2024-01-30T01:19:06;16.77;;;8.15;;
32172;SDS011;18679;45.190;5.722;2024-01-30T01:22:07;20.70;;;8.13;;
32172;SDS011;18679;45.190;5.722;2024-01-30T01:25:08;21.52;;;7.75;;
32172;SDS011;18679;45.190;5.722;2024-01-30T01:28:10;18.17;;;7.70;;
32172;SDS011;18679;45.190;5.722;2024-01-30T01:31:11;23.15;;;8.15;;
32172;SDS011;18679;45.190;5.722;2024-01-30T01:34:13;23.48;;;8.65;;
32172;SDS011;18679;45.190;5.722;2024-01-30T01:37:15;22.45;;;8.43;;
32172;SDS011;18679;45.190;5.722;2024-01-30T01:40:16;20.50;;;7.70;;
32172;SDS011;18679;45.190;5.722;2024-01-30T01:43:17;21.67;;;8.48;;
32172;SDS011;18679;45.190;5.722;2024-01-30T01:46:18;19.98;;;8.82;;
32172;SDS011;18679;45.190;5.722;2024-01-30T01:49:19;24.75;;;9.52;;
32172;SDS011;18679;45.190;5.722;2024-01-30T01:52:22;16.58;;;8.57;;
32172;SDS011;18679;45.190;5.722;2024-01-30T01:55:23;24.27;;;8.73;;
32172;SDS011;18679;45.190;5.722;2024-01-30T01:58:28;25.45;;;8.65;;
32172;SDS011;18679;45.190;5.722;2024-01-30T02:01:30;16.92;;;8.02;;
32172;SDS011;18679;45.190;5.722;2024-01-30T02:04:33;15.77;;;6.88;;
32172;SDS011;18679;45.190;5.722;2024-01-30T02:07:34;22.48;;;7.80;;
32172;SDS011;18679;45.190;5.722;2024-01-30T02:10:34;23.52;;;9.43;;
32172;SDS011;18679;45.190;5.722;2024-01-30T02:13:36;16.67;;;7.72;;
32172;SDS011;18679;45.190;5.722;2024-01-30T02:16:37;19.60;;;8.27;;
32172;SDS011;18679;45.190;5.722;2024-01-30T02:19:38;14.23;;;7.13;;
32172;SDS011;18679;45.190;5.722;2024-01-30T02:22:39;25.02;;;8.68;;
32172;SDS011;18679;45.190;5.722;2024-01-30T02:25:41;15.95;;;8.20;;
32172;SDS011;18679;45.190;5.722;2024-01-30T02:28:44;14.70;;;7.38;;
32172;SDS011;18679;45.190;5.722;2024-01-30T02:31:45;19.17;;;7.15;;
32172;SDS011;18679;45.190;5.722;2024-01-30T02:34:46;16.48;;;7.40;;
32172;SDS011;18679;45.190;5.722;2024-01-30T02:37:47;20.70;;;8.75;;
32172;SDS011;18679;45.190;5.722;2024-01-30T02:40:47;17.63;;;8.25;;
32172;SDS011;18679;45.190;5.722;2024-01-30T02:43:48;18.85;;;7.20;;
32172;SDS011;18679;45.190;5.722;2024-01-30T02:46:49;20.00;;;9.15;;
32172;SDS011;18679;45.190;5.722;2024-01-30T02:49:50;19.80;;;7.80;;
32172;SDS011;18679;45.190;5.722;2024-01-30T02:52:50;22.13;;;7.85;;
32172;SDS011;18679;45.190;5.722;2024-01-30T02:55:53;22.50;;;9.00;;
32172;SDS011;18679;45.190;5.722;2024-01-30T02:58:54;20.55;;;8.32;;
32172;SDS011;18679;45.190;5.722;2024-01-30T03:01:55;22.70;;;8.52;;
32172;SDS011;18679;45.190;5.722;2024-01-30T03:04:56;22.70;;;8.73;;
32172;SDS011;18679;45.190;5.722;2024-01-30T03:07:57;23.63;;;7.80;;
32172;SDS011;18679;45.190;5.722;2024-01-30T03:10:58;23.25;;;8.02;;
32172;SDS011;18679;45.190;5.722;2024-01-30T03:13:59;25.33;;;8.73;;
32172;SDS011;18679;45.190;5.722;2024-01-30T03:17:00;14.15;;;7.90;;
32172;SDS011;18679;45.190;5.722;2024-01-30T03:20:02;15.77;;;8.15;;
32172;SDS011;18679;45.190;5.722;2024-01-30T03:23:04;22.88;;;8.95;;
32172;SDS011;18679;45.190;5.722;2024-01-30T03:26:05;16.83;;;7.80;;
32172;SDS011;18679;45.190;5.722;2024-01-30T03:29:07;22.08;;;8.30;;
32172;SDS011;18679;45.190;5.722;2024-01-30T03:32:08;24.55;;;9.45;;
32172;SDS011;18679;45.190;5.722;2024-01-30T03:35:09;23.88;;;8.52;;
32172;SDS011;18679;45.190;5.722;2024-01-30T03:38:10;19.30;;;7.57;;
32172;SDS011;18679;45.190;5.722;2024-01-30T03:41:11;16.60;;;6.90;;
32172;SDS011;18679;45.190;5.722;2024-01-30T03:44:12;21.70;;;8.60;;
32172;SDS011;18679;45.190;5.722;2024-01-30T03:47:12;20.35;;;8.18;;
32172;SDS011;18679;45.190;5.722;2024-01-30T03:50:13;19.65;;;8.30;;
32172;SDS011;18679;45.190;5.722;2024-01-30T03:53:15;18.85;;;7.88;;
32172;SDS011;18679;45.190;5.722;2024-01-30T03:56:16;19.15;;;7.93;;
32172;SDS011;18679;45.190;5.722;2024-01-30T03:59:17;20.05;;;7.32;;
32172;SDS011;18679;45.190;5.722;2024-01-30T04:02:22;22.17;;;8.13;;
32172;SDS011;18679;45.190;5.722;2024-01-30T04:05:23;20.42;;;8.77;;
32172;SDS011;18679;45.190;5.722;2024-01-30T04:08:24;23.92;;;8.07;;
32172;SDS011;18679;45.190;5.722;2024-01-30T04:11:25;26.58;;;8.00;;
32172;SDS011;18679;45.190;5.722;2024-01-30T04:14:25;17.23;;;7.10;;
32172;SDS011;18679;45.190;5.722;2024-01-30T04:17:26;17.20;;;7.97;;
32172;SDS011;18679;45.190;5.722;2024-01-30T04:20:29;19.73;;;8.15;;
32172;SDS011;18679;45.190;5.722;2024-01-30T04:23:30;16.95;;;7.35;;
32172;SDS011;18679;45.190;5.722;2024-01-30T04:26:31;15.55;;;7.53;;
32172;SDS011;18679;45.190;5.722;2024-01-30T04:29:32;18.55;;;8.50;;
32172;SDS011;18679;45.190;5.722;2024-01-30T04:32:33;26.00;;;7.95;;
32172;SDS011;18679;45.190;5.722;2024-01-30T04:35:35;19.77;;;8.00;;
32172;SDS011;18679;45.190;5.722;2024-01-30T04:38:38;17.15;;;7.75;;
32172;SDS011;18679;45.190;5.722;2024-01-30T04:41:39;19.58;;;7.20;;
32172;SDS011;18679;45.190;5.722;2024-01-30T04:44:40;16.17;;;7.30;;
32172;SDS011;18679;45.190;5.722;2024-01-30T04:47:40;19.52;;;7.95;;
32172;SDS011;18679;45.190;5.722;2024-01-30T04:50:41;22.02;;;8.50;;
32172;SDS011;18679;45.190;5.722;2024-01-30T04:53:43;15.30;;;7.28;;
32172;SDS011;18679;45.190;5.722;2024-01-30T04:56:44;18.83;;;7.90;;
32172;SDS011;18679;45.190;5.722;2024-01-30T04:59:45;22.15;;;7.35;;
32172;SDS011;18679;45.190;5.722;2024-01-30T05:02:46;19.40;;;7.18;;
32172;SDS011;18679;45.190;5.722;2024-01-30T05:05:46;18.13;;;7.25;;
32172;SDS011;18679;45.190;5.722;2024-01-30T05:08:47;13.35;;;6.95;;
32172;SDS011;18679;45.190;5.722;2024-01-30T05:11:49;21.48;;;8.60;;
32172;SDS011;18679;45.190;5.722;2024-01-30T05:14:50;14.32;;;7.72;;
32172;SDS011;18679;45.190;5.722;2024-01-30T05:17:51;16.20;;;7.07;;
32172;SDS011;18679;45.190;5.722;2024-01-30T05:20:52;13.95;;;8.23;;
32172;SDS011;18679;45.190;5.722;2024-01-30T05:23:53;17.63;;;8.20;;
32172;SDS011;18679;45.190;5.722;2024-01-30T05:26:53;18.67;;;7.75;;
32172;SDS011;18679;45.190;5.722;2024-01-30T05:29:54;18.92;;;7.75;;
32172;SDS011;18679;45.190;5.722;2024-01-30T05:32:55;19.70;;;8.10;;
32172;SDS011;18679;45.190;5.722;2024-01-30T05:35:56;17.33;;;8.43;;
32172;SDS011;18679;45.190;5.722;2024-01-30T05:38:57;20.20;;;6.55;;
32172;SDS011;18679;45.190;5.722;2024-01-30T05:41:57;12.45;;;5.70;;
32172;SDS011;18679;45.190;5.722;2024-01-30T05:44:59;15.68;;;7.55;;
32172;SDS011;18679;45.190;5.722;2024-01-30T05:48:01;10.32;;;5.60;;
32172;SDS011;18679;45.190;5.722;2024-01-30T05:51:02;21.83;;;6.90;;
32172;SDS011;18679;45.190;5.722;2024-01-30T05:54:04;15.75;;;7.80;;
32172;SDS011;18679;45.190;5.722;2024-01-30T05:57:07;18.25;;;8.82;;
32172;SDS011;18679;45.190;5.722;2024-01-30T06:00:08;15.43;;;7.30;;
32172;SDS011;18679;45.190;5.722;2024-01-30T06:03:11;19.77;;;8.65;;
32172;SDS011;18679;45.190;5.722;2024-01-30T06:06:11;16.25;;;8.32;;
32172;SDS011;18679;45.190;5.722;2024-01-30T06:09:12;16.75;;;7.32;;
32172;SDS011;18679;45.190;5.722;2024-01-30T06:12:14;17.90;;;7.47;;
32172;SDS011;18679;45.190;5.722;2024-01-30T06:15:15;16.33;;;7.35;;
32172;SDS011;18679;45.190;5.722;2024-01-30T06:18:17;16.13;;;8.15;;
32172;SDS011;18679;45.190;5.722;2024-01-30T06:21:18;34.55;;;7.82;;
32172;SDS011;18679;45.190;5.722;2024-01-30T06:24:19;18.48;;;7.15;;
32172;SDS011;18679;45.190;5.722;2024-01-30T06:27:21;16.42;;;7.38;;
32172;SDS011;18679;45.190;5.722;2024-01-30T06:30:21;10.30;;;6.38;;
32172;SDS011;18679;45.190;5.722;2024-01-30T06:33:23;14.57;;;7.03;;
32172;SDS011;18679;45.190;5.722;2024-01-30T06:36:25;16.73;;;8.48;;
32172;SDS011;18679;45.190;5.722;2024-01-30T06:39:26;21.38;;;8.48;;
32172;SDS011;18679;45.190;5.722;2024-01-30T06:42:27;18.55;;;7.85;;
32172;SDS011;18679;45.190;5.722;2024-01-30T06:45:28;15.07;;;6.57;;
32172;SDS011;18679;45.190;5.722;2024-01-30T06:48:28;11.90;;;6.47;;
32172;SDS011;18679;45.190;5.722;2024-01-30T06:51:31;14.70;;;6.40;;
32172;SDS011;18679;45.190;5.722;2024-01-30T06:54:32;18.98;;;8.52;;
32172;SDS011;18679;45.190;5.722;2024-01-30T06:57:33;25.10;;;6.72;;
32172;SDS011;18679;45.190;5.722;2024-01-30T07:00:34;16.20;;;7.10;;
32172;SDS011;18679;45.190;5.722;2024-01-30T07:03:34;17.23;;;7.07;;
32172;SDS011;18679;45.190;5.722;2024-01-30T07:06:35;14.55;;;5.60;;
32172;SDS011;18679;45.190;5.722;2024-01-30T07:09:36;14.15;;;6.20;;
32172;SDS011;18679;45.190;5.722;2024-01-30T07:12:37;13.02;;;6.45;;
32172;SDS011;18679;45.190;5.722;2024-01-30T07:15:39;13.68;;;5.97;;
32172;SDS011;18679;45.190;5.722;2024-01-30T07:18:39;32.33;;;6.65;;
32172;SDS011;18679;45.190;5.722;2024-01-30T07:21:40;16.90;;;6.45;;
32172;SDS011;18679;45.190;5.722;2024-01-30T07:24:44;20.55;;;6.30;;
32172;SDS011;18679;45.190;5.722;2024-01-30T07:27:47;16.92;;;6.38;;
32172;SDS011;18679;45.190;5.722;2024-01-30T07:30:48;13.10;;;6.40;;
32172;SDS011;18679;45.190;5.722;2024-01-30T07:33:49;10.07;;;5.35;;
32172;SDS011;18679;45.190;5.722;2024-01-30T07:36:50;17.50;;;7.15;;
32172;SDS011;18679;45.190;5.722;2024-01-30T07:39:51;14.60;;;7.32;;
32172;SDS011;18679;45.190;5.722;2024-01-30T07:42:53;19.08;;;8.13;;
32172;SDS011;18679;45.190;5.722;2024-01-30T07:45:54;24.02;;;8.07;;
32172;SDS011;18679;45.190;5.722;2024-01-30T07:48:55;16.30;;;7.20;;
32172;SDS011;18679;45.190;5.722;2024-01-30T07:51:57;14.75;;;6.82;;
32172;SDS011;18679;45.190;5.722;2024-01-30T07:55:17;11.55;;;6.40;;
32172;SDS011;18679;45.190;5.722;2024-01-30T07:58:51;11.63;;;5.50;;
32172;SDS011;18679;45.190;5.722;2024-01-30T08:01:52;13.73;;;7.18;;
32172;SDS011;18679;45.190;5.722;2024-01-30T08:04:53;21.65;;;8.05;;
32172;SDS011;18679;45.190;5.722;2024-01-30T08:07:54;22.23;;;7.47;;
32172;SDS011;18679;45.190;5.722;2024-01-30T08:10:55;22.77;;;7.50;;
32172;SDS011;18679;45.190;5.722;2024-01-30T08:13:56;27.80;;;7.25;;
32172;SDS011;18679;45.190;5.722;2024-01-30T08:16:57;21.67;;;7.53;;
32172;SDS011;18679;45.190;5.722;2024-01-30T08:19:57;14.77;;;7.97;;
32172;SDS011;18679;45.190;5.722;2024-01-30T08:22:58;23.13;;;7.00;;
32172;SDS011;18679;45.190;5.722;2024-01-30T08:26:00;18.90;;;8.40;;
32172;SDS011;18679;45.190;5.722;2024-01-30T08:29:02;17.65;;;7.68;;
32172;SDS011;18679;45.190;5.722;2024-01-30T08:32:06;19.92;;;8.10;;
32172;SDS011;18679;45.190;5.722;2024-01-30T08:35:07;19.90;;;7.72;;
32172;SDS011;18679;45.190;5.722;2024-01-30T08:38:09;21.75;;;6.95;;
32172;SDS011;18679;45.190;5.722;2024-01-30T08:41:12;24.25;;;9.20;;
32172;SDS011;18679;45.190;5.722;2024-01-30T08:44:13;12.02;;;7.10;;
32172;SDS011;18679;45.190;5.722;2024-01-30T08:47:14;19.52;;;8.77;;
32172;SDS011;18679;45.190;5.722;2024-01-30T08:50:16;13.77;;;6.95;;
32172;SDS011;18679;45.190;5.722;2024-01-30T08:53:18;16.50;;;8.00;;
32172;SDS011;18679;45.190;5.722;2024-01-30T08:56:21;15.05;;;7.07;;
32172;SDS011;18679;45.190;5.722;2024-01-30T08:59:22;18.23;;;7.80;;
32172;SDS011;18679;45.190;5.722;2024-01-30T09:02:23;14.55;;;7.82;;
32172;SDS011;18679;45.190;5.722;2024-01-30T09:05:25;17.13;;;7.45;;
32172;SDS011;18679;45.190;5.722;2024-01-30T09:08:26;20.00;;;8.23;;
32172;SDS011;18679;45.190;5.722;2024-01-30T09:11:27;16.38;;;7.55;;
32172;SDS011;18679;45.190;5.722;2024-01-30T09:14:29;21.60;;;7.50;;
32172;SDS011;18679;45.190;5.722;2024-01-30T09:17:30;17.17;;;7.20;;
32172;SDS011;18679;45.190;5.722;2024-01-30T09:20:31;15.02;;;6.85;;
32172;SDS011;18679;45.190;5.722;2024-01-30T09:23:32;15.27;;;7.47;;
32172;SDS011;18679;45.190;5.722;2024-01-30T09:26:33;14.82;;;6.88;;
32172;SDS011;18679;45.190;5.722;2024-01-30T09:29:35;17.90;;;7.05;;
32172;SDS011;18679;45.190;5.722;2024-01-30T09:32:37;36.60;;;8.15;;
32172;SDS011;18679;45.190;5.722;2024-01-30T09:35:39;16.30;;;7.18;;
32172;SDS011;18679;45.190;5.722;2024-01-30T09:38:40;23.95;;;8.13;;
32172;SDS011;18679;45.190;5.722;2024-01-30T09:41:45;19.17;;;8.25;;
32172;SDS011;18679;45.190;5.722;2024-01-30T09:44:50;24.58;;;10.75;;
32172;SDS011;18679;45.190;5.722;2024-01-30T09:47:54;23.20;;;9.23;;
32172;SDS011;18679;45.190;5.722;2024-01-30T09:50:55;15.95;;;7.70;;
32172;SDS011;18679;45.190;5.722;2024-01-30T09:53:57;15.77;;;7.75;;
32172;SDS011;18679;45.190;5.722;2024-01-30T09:57:00;22.58;;;7.80;;
32172;SDS011;18679;45.190;5.722;2024-01-30T10:00:01;20.52;;;6.78;;
32172;SDS011;18679;45.190;5.722;2024-01-30T10:03:12;16.55;;;8.07;;
32172;SDS011;18679;45.190;5.722;2024-01-30T10:06:15;22.80;;;8.15;;
32172;SDS011;18679;45.190;5.722;2024-01-30T10:09:17;26.40;;;8.80;;
32172;SDS011;18679;45.190;5.722;2024-01-30T10:12:18;17.63;;;8.73;;
32172;SDS011;18679;45.190;5.722;2024-01-30T10:15:19;20.55;;;9.55;;
32172;SDS011;18679;45.190;5.722;2024-01-30T10:18:20;19.67;;;9.27;;
32172;SDS011;18679;45.190;5.722;2024-01-30T10:21:23;20.83;;;10.10;;
32172;SDS011;18679;45.190;5.722;2024-01-30T10:24:25;18.73;;;9.20;;
32172;SDS011;18679;45.190;5.722;2024-01-30T10:27:26;18.90;;;9.00;;
32172;SDS011;18679;45.190;5.722;2024-01-30T10:30:28;17.08;;;9.10;;
32172;SDS011;18679;45.190;5.722;2024-01-30T10:33:29;17.52;;;8.95;;
32172;SDS011;18679;45.190;5.722;2024-01-30T10:36:30;17.15;;;8.63;;
32172;SDS011;18679;45.190;5.722;2024-01-30T10:39:37;17.80;;;8.85;;
32172;SDS011;18679;45.190;5.722;2024-01-30T10:42:43;22.15;;;9.05;;
32172;SDS011;18679;45.190;5.722;2024-01-30T10:45:45;20.25;;;9.65;;
32172;SDS011;18679;45.190;5.722;2024-01-30T10:48:50;17.70;;;8.52;;
32172;SDS011;18679;45.190;5.722;2024-01-30T10:52:00;22.23;;;10.05;;
32172;SDS011;18679;45.190;5.722;2024-01-30T10:55:03;21.23;;;9.07;;
32172;SDS011;18679;45.190;5.722;2024-01-30T10:58:06;17.42;;;9.02;;
32172;SDS011;18679;45.190;5.722;2024-01-30T11:01:08;21.48;;;8.38;;
32172;SDS011;18679;45.190;5.722;2024-01-30T11:04:09;18.52;;;8.43;;
32172;SDS011;18679;45.190;5.722;2024-01-30T11:07:14;23.85;;;8.80;;
32172;SDS011;18679;45.190;5.722;2024-01-30T11:10:16;30.35;;;11.75;;
32172;SDS011;18679;45.190;5.722;2024-01-30T11:13:18;18.52;;;7.38;;
32172;SDS011;18679;45.190;5.722;2024-01-30T11:16:20;17.02;;;8.02;;
32172;SDS011;18679;45.190;5.722;2024-01-30T11:19:30;15.98;;;7.63;;
32172;SDS011;18679;45.190;5.722;2024-01-30T11:22:32;17.65;;;7.50;;
32172;SDS011;18679;45.190;5.722;2024-01-30T11:25:34;18.52;;;8.85;;
32172;SDS011;18679;45.190;5.722;2024-01-30T11:28:36;14.98;;;6.65;;
32172;SDS011;18679;45.190;5.722;2024-01-30T11:31:38;13.13;;;6.93;;
32172;SDS011;18679;45.190;5.722;2024-01-30T11:34:40;15.73;;;6.85;;
32172;SDS011;18679;45.190;5.722;2024-01-30T11:37:42;17.80;;;7.22;;
32172;SDS011;18679;45.190;5.722;2024-01-30T11:40:45;11.60;;;6.60;;
32172;SDS011;18679;45.190;5.722;2024-01-30T11:43:52;23.08;;;8.30;;
32172;SDS011;18679;45.190;5.722;2024-01-30T11:46:54;18.05;;;8.27;;
32172;SDS011;18679;45.190;5.722;2024-01-30T11:49:56;15.30;;;8.00;;
32172;SDS011;18679;45.190;5.722;2024-01-30T11:52:57;27.45;;;9.38;;
32172;SDS011;18679;45.190;5.722;2024-01-30T11:56:00;13.85;;;8.02;;
32172;SDS011;18679;45.190;5.722;2024-01-30T11:59:01;16.55;;;8.40;;
32172;SDS011;18679;45.190;5.722;2024-01-30T12:02:03;22.58;;;9.80;;
32172;SDS011;18679;45.190;5.722;2024-01-30T12:05:05;18.70;;;9.50;;
32172;SDS011;18679;45.190;5.722;2024-01-30T12:08:13;16.23;;;7.78;;
32172;SDS011;18679;45.190;5.722;2024-01-30T12:11:15;22.65;;;9.20;;
32172;SDS011;18679;45.190;5.722;2024-01-30T12:14:16;16.30;;;7.60;;
32172;SDS011;18679;45.190;5.722;2024-01-30T12:17:26;17.02;;;7.68;;
32172;SDS011;18679;45.190;5.722;2024-01-30T12:20:31;15.73;;;8.07;;
32172;SDS011;18679;45.190;5.722;2024-01-30T12:23:32;21.15;;;8.07;;
32172;SDS011;18679;45.190;5.722;2024-01-30T12:26:35;20.23;;;8.05;;
32172;SDS011;18679;45.190;5.722;2024-01-30T12:29:36;14.73;;;7.53;;
32172;SDS011;18679;45.190;5.722;2024-01-30T12:32:40;17.80;;;7.50;;
32172;SDS011;18679;45.190;5.722;2024-01-30T12:35:46;22.30;;;7.47;;
32172;SDS011;18679;45.190;5.722;2024-01-30T12:38:50;12.98;;;7.13;;
32172;SDS011;18679;45.190;5.722;2024-01-30T12:41:51;22.27;;;6.38;;
32172;SDS011;18679;45.190;5.722;2024-01-30T12:44:52;14.68;;;7.00;;
32172;SDS011;18679;45.190;5.722;2024-01-30T12:47:53;17.67;;;7.32;;
32172;SDS011;18679;45.190;5.722;2024-01-30T12:50:55;24.38;;;7.53;;
32172;SDS011;18679;45.190;5.722;2024-01-30T12:53:56;17.20;;;7.00;;
32172;SDS011;18679;45.190;5.722;2024-01-30T12:56:57;13.75;;;7.38;;
32172;SDS011;18679;45.190;5.722;2024-01-30T13:00:00;18.38;;;8.85;;
32172;SDS011;18679;45.190;5.722;2024-01-30T13:03:01;18.23;;;7.45;;
32172;SDS011;18679;45.190;5.722;2024-01-30T13:06:02;19.85;;;7.88;;
32172;SDS011;18679;45.190;5.722;2024-01-30T13:09:04;18.98;;;7.35;;
32172;SDS011;18679;45.190;5.722;2024-01-30T13:12:06;20.42;;;8.20;;
32172;SDS011;18679;45.190;5.722;2024-01-30T13:15:08;24.83;;;8.18;;
32172;SDS011;18679;45.190;5.722;2024-01-30T13:18:11;18.05;;;7.70;;
32172;SDS011;18679;45.190;5.722;2024-01-30T13:21:12;19.30;;;7.80;;
32172;SDS011;18679;45.190;5.722;2024-01-30T13:24:14;16.13;;;7.63;;
32172;SDS011;18679;45.190;5.722;2024-01-30T13:27:15;16.27;;;7.82;;
32172;SDS011;18679;45.190;5.722;2024-01-30T13:30:18;13.73;;;6.88;;
32172;SDS011;18679;45.190;5.722;2024-01-30T13:33:19;16.80;;;8.77;;
32172;SDS011;18679;45.190;5.722;2024-01-30T13:36:21;19.45;;;7.05;;
32172;SDS011;18679;45.190;5.722;2024-01-30T13:39:25;14.73;;;6.15;;
32172;SDS011;18679;45.190;5.722;2024-01-30T13:42:26;14.70;;;7.63;;
32172;SDS011;18679;45.190;5.722;2024-01-30T13:45:27;19.88;;;7.35;;
32172;SDS011;18679;45.190;5.722;2024-01-30T13:48:28;17.98;;;7.43;;
32172;SDS011;18679;45.190;5.722;2024-01-30T13:51:30;15.15;;;7.22;;
32172;SDS011;18679;45.190;5.722;2024-01-30T13:54:30;19.02;;;6.68;;
32172;SDS011;18679;45.190;5.722;2024-01-30T13:57:34;17.70;;;7.32;;
32172;SDS011;18679;45.190;5.722;2024-01-30T14:00:36;16.55;;;7.18;;
32172;SDS011;18679;45.190;5.722;2024-01-30T14:03:36;15.18;;;6.80;;
32172;SDS011;18679;45.190;5.722;2024-01-30T14:06:37;16.02;;;5.85;;
32172;SDS011;18679;45.190;5.722;2024-01-30T14:09:38;13.93;;;5.10;;
32172;SDS011;18679;45.190;5.722;2024-01-30T14:12:41;21.55;;;6.20;;
32172;SDS011;18679;45.190;5.722;2024-01-30T14:15:48;12.52;;;4.50;;
32172;SDS011;18679;45.190;5.722;2024-01-30T14:18:50;10.07;;;5.20;;
32172;SDS011;18679;45.190;5.722;2024-01-30T14:21:50;11.35;;;4.90;;
32172;SDS011;18679;45.190;5.722;2024-01-30T14:24:51;15.75;;;5.75;;
32172;SDS011;18679;45.190;5.722;2024-01-30T14:27:53;13.70;;;4.63;;
32172;SDS011;18679;45.190;5.722;2024-01-30T14:30:55;11.88;;;4.20;;
32172;SDS011;18679;45.190;5.722;2024-01-30T14:33:56;12.15;;;4.60;;
32172;SDS011;18679;45.190;5.722;2024-01-30T14:36:57;11.70;;;3.53;;
32172;SDS011;18679;45.190;5.722;2024-01-30T14:39:58;9.85;;;4.40;;
32172;SDS011;18679;45.190;5.722;2024-01-30T14:42:59;12.15;;;5.00;;
32172;SDS011;18679;45.190;5.722;2024-01-30T14:46:01;13.32;;;4.13;;
32172;SDS011;18679;45.190;5.722;2024-01-30T14:49:02;6.97;;;3.95;;
32172;SDS011;18679;45.190;5.722;2024-01-30T14:52:09;5.60;;;3.80;;
32172;SDS011;18679;45.190;5.722;2024-01-30T14:55:11;9.73;;;4.07;;
32172;SDS011;18679;45.190;5.722;2024-01-30T14:58:12;7.05;;;4.15;;
32172;SDS011;18679;45.190;5.722;2024-01-30T15:01:14;8.65;;;4.00;;
32172;SDS011;18679;45.190;5.722;2024-01-30T15:04:14;8.75;;;3.85;;
32172;SDS011;18679;45.190;5.722;2024-01-30T15:07:18;10.93;;;4.47;;
32172;SDS011;18679;45.190;5.722;2024-01-30T15:10:21;7.32;;;4.13;;
32172;SDS011;18679;45.190;5.722;2024-01-30T15:13:22;7.10;;;3.65;;
32172;SDS011;18679;45.190;5.722;2024-01-30T15:16:23;9.07;;;3.90;;
32172;SDS011;18679;45.190;5.722;2024-01-30T15:19:25;9.50;;;4.00;;
32172;SDS011;18679;45.190;5.722;2024-01-30T15:22:27;13.18;;;4.38;;
32172;SDS011;18679;45.190;5.722;2024-01-30T15:25:28;8.63;;;4.85;;
32172;SDS011;18679;45.190;5.722;2024-01-30T15:28:36;11.35;;;5.00;;
32172;SDS011;18679;45.190;5.722;2024-01-30T15:31:38;11.43;;;5.05;;
32172;SDS011;18679;45.190;5.722;2024-01-30T15:34:38;8.98;;;5.18;;
32172;SDS011;18679;45.190;5.722;2024-01-30T15:37:41;11.18;;;5.50;;
32172;SDS011;18679;45.190;5.722;2024-01-30T15:40:43;10.80;;;5.65;;
32172;SDS011;18679;45.190;5.722;2024-01-30T15:43:45;14.25;;;6.07;;
32172;SDS011;18679;45.190;5.722;2024-01-30T15:46:46;14.85;;;6.25;;
32172;SDS011;18679;45.190;5.722;2024-01-30T15:49:47;12.05;;;6.15;;
32172;SDS011;18679;45.190;5.722;2024-01-30T15:52:48;10.93;;;5.75;;
32172;SDS011;18679;45.190;5.722;2024-01-30T15:55:49;11.10;;;5.97;;
32172;SDS011;18679;45.190;5.722;2024-01-30T15:58:50;13.48;;;5.90;;
32172;SDS011;18679;45.190;5.722;2024-01-30T16:01:52;11.18;;;5.95;;
32172;SDS011;18679;45.190;5.722;2024-01-30T16:04:53;15.77;;;6.80;;
32172;SDS011;18679;45.190;5.722;2024-01-30T16:07:54;21.38;;;7.03;;
32172;SDS011;18679;45.190;5.722;2024-01-30T16:10:55;17.10;;;5.85;;
32172;SDS011;18679;45.190;5.722;2024-01-30T16:13:56;10.90;;;5.53;;
32172;SDS011;18679;45.190;5.722;2024-01-30T16:16:57;11.52;;;5.15;;
32172;SDS011;18679;45.190;5.722;2024-01-30T16:19:58;19.73;;;5.53;;
32172;SDS011;18679;45.190;5.722;2024-01-30T16:22:59;17.02;;;4.70;;
32172;SDS011;18679;45.190;5.722;2024-01-30T16:26:01;18.95;;;4.88;;
32172;SDS011;18679;45.190;5.722;2024-01-30T16:29:02;9.35;;;4.53;;
32172;SDS011;18679;45.190;5.722;2024-01-30T16:32:04;10.10;;;4.53;;
32172;SDS011;18679;45.190;5.722;2024-01-30T16:35:07;17.02;;;4.25;;
32172;SDS011;18679;45.190;5.722;2024-01-30T16:38:07;10.57;;;4.32;;
32172;SDS011;18679;45.190;5.722;2024-01-30T16:41:10;10.65;;;4.32;;
32172;SDS011;18679;45.190;5.722;2024-01-30T16:44:11;11.48;;;4.82;;
32172;SDS011;18679;45.190;5.722;2024-01-30T16:47:13;15.95;;;5.90;;
32172;SDS011;18679;45.190;5.722;2024-01-30T16:50:14;15.05;;;6.13;;
32172;SDS011;18679;45.190;5.722;2024-01-30T16:53:15;13.25;;;5.38;;
32172;SDS011;18679;45.190;5.722;2024-01-30T16:56:16;14.52;;;5.38;;
32172;SDS011;18679;45.190;5.722;2024-01-30T16:59:17;14.23;;;6.10;;
32172;SDS011;18679;45.190;5.722;2024-01-30T17:02:20;12.57;;;5.57;;
32172;SDS011;18679;45.190;5.722;2024-01-30T17:05:21;16.67;;;6.65;;
32172;SDS011;18679;45.190;5.722;2024-01-30T17:08:21;14.70;;;6.28;;
32172;SDS011;18679;45.190;5.722;2024-01-30T17:11:23;15.10;;;6.13;;
32172;SDS011;18679;45.190;5.722;2024-01-30T17:14:24;14.55;;;5.78;;
32172;SDS011;18679;45.190;5.722;2024-01-30T17:17:25;21.17;;;5.70;;
32172;SDS011;18679;45.190;5.722;2024-01-30T17:20:28;10.77;;;5.05;;
32172;SDS011;18679;45.190;5.722;2024-01-30T17:23:28;16.77;;;5.30;;
32172;SDS011;18679;45.190;5.722;2024-01-30T17:26:34;10.38;;;5.97;;
32172;SDS011;18679;45.190;5.722;2024-01-30T17:29:35;18.10;;;5.80;;
32172;SDS011;18679;45.190;5.722;2024-01-30T17:32:35;17.15;;;5.65;;
32172;SDS011;18679;45.190;5.722;2024-01-30T17:35:36;11.23;;;5.47;;
32172;SDS011;18679;45.190;5.722;2024-01-30T17:38:37;13.05;;;5.72;;
32172;SDS011;18679;45.190;5.722;2024-01-30T17:41:38;10.38;;;5.32;;
32172;SDS011;18679;45.190;5.722;2024-01-30T17:44:39;11.07;;;5.63;;
32172;SDS011;18679;45.190;5.722;2024-01-30T17:47:40;10.25;;;4.90;;
32172;SDS011;18679;45.190;5.722;2024-01-30T17:50:41;11.02;;;4.90;;
32172;SDS011;18679;45.190;5.722;2024-01-30T17:53:42;20.35;;;7.85;;
32172;SDS011;18679;45.190;5.722;2024-01-30T17:56:43;12.75;;;5.45;;
32172;SDS011;18679;45.190;5.722;2024-01-30T17:59:44;13.55;;;5.95;;